PWSweather.com
Personal Weather Stations
Station Observations
IMAZOWIE6
WarszawaPL

WarszawaPL

Lat: 52.27957, Lon: 21.05489

Elevation: 100

Station Type: WS1080

http://stacjapogody.waw.pl/

High Low Average
Temperature 38.1°F3.4°C 19.8°F-6.8°C 32.2°F0.1°C
Dew Point 9.9°F-12.3°C -170.8°F-112.7°C -15.5°F-26.4°C
Winds 4.0 mph 6.4 kmh Calm Calm 2.0 mph N3.2 kmh N
Wind Gusts 7.4 mph11.9 kmh 0.6 mph1.0 kmh 4.0 mph6.4 kmh
Humidity 31% 10% 25%
Pressure 29.21 in989.2 mb 29.05 in983.7 mb -
Precipitation 0.00 in0.0 mm - -
Hour Temp Dew Point Humidity Winds Wind Gusts Pressure Precip Precip Rate Daily Precip Total
12:05 AM 19.8°F-6.8°C -170.8°F-112.7°C - 1.4 mph N2.3 kmh N 4.8 mph7.7 kmh 29.16 in987.5 mb 0.00 in0.0 mm 0.00 in0.0 mm 0.00 in0.0 mm
12:20 AM 19.9°F-6.7°C -170.8°F-112.7°C - Calm Calm 1.4 mph2.3 kmh 29.16 in987.5 mb 0.00 in0.0 mm 0.00 in0.0 mm 0.00 in0.0 mm
12:35 AM 20.1°F-6.6°C -170.8°F-112.7°C - 2.0 mph N3.2 kmh N 3.4 mph5.5 kmh 29.16 in987.5 mb 0.00 in0.0 mm 0.00 in0.0 mm 0.00 in0.0 mm
12:50 AM 19.9°F-6.7°C -170.8°F-112.7°C - 0.6 mph N1.0 kmh N 2.8 mph4.5 kmh 29.15 in987.1 mb 0.00 in0.0 mm 0.00 in0.0 mm 0.00 in0.0 mm
01:05 AM 20.1°F-6.6°C -170.8°F-112.7°C - 2.0 mph N3.2 kmh N 4.8 mph7.7 kmh 29.14 in986.8 mb 0.00 in0.0 mm 0.00 in0.0 mm 0.00 in0.0 mm
01:20 AM 20.5°F-6.4°C -170.8°F-112.7°C - 0.6 mph N1.0 kmh N 2.0 mph3.2 kmh 29.14 in986.8 mb 0.00 in0.0 mm 0.00 in0.0 mm 0.00 in0.0 mm
01:35 AM 20.7°F-6.3°C -170.7°F-112.6°C - Calm Calm 2.0 mph3.2 kmh 29.14 in986.8 mb 0.00 in0.0 mm 0.00 in0.0 mm 0.00 in0.0 mm
01:50 AM 20.3°F-6.5°C -170.8°F-112.7°C - 2.8 mph N4.5 kmh N 3.4 mph5.5 kmh 29.13 in986.5 mb 0.00 in0.0 mm 0.00 in0.0 mm 0.00 in0.0 mm
02:05 AM 20.1°F-6.6°C -170.8°F-112.7°C - Calm Calm 2.0 mph3.2 kmh 29.13 in986.5 mb 0.00 in0.0 mm 0.00 in0.0 mm 0.00 in0.0 mm
02:20 AM 20.3°F-6.5°C -27.5°F-33.1°C 10% Calm Calm 0.6 mph1.0 kmh 29.12 in986.1 mb 0.00 in0.0 mm 0.00 in0.0 mm 0.00 in0.0 mm
02:35 AM 21.0°F-6.1°C -23.6°F-30.9°C 12% 0.6 mph N1.0 kmh N 2.8 mph4.5 kmh 29.11 in985.8 mb 0.00 in0.0 mm 0.00 in0.0 mm 0.00 in0.0 mm
02:50 AM 21.6°F-5.8°C -21.7°F-29.8°C 13% 2.0 mph N3.2 kmh N 4.8 mph7.7 kmh 29.11 in985.8 mb 0.00 in0.0 mm 0.00 in0.0 mm 0.00 in0.0 mm
03:05 AM 21.7°F-5.7°C -21.6°F-29.8°C 13% 2.0 mph N3.2 kmh N 5.4 mph8.7 kmh 29.10 in985.4 mb 0.00 in0.0 mm 0.00 in0.0 mm 0.00 in0.0 mm
03:20 AM 22.5°F-5.3°C -19.6°F-28.7°C 14% 2.8 mph N4.5 kmh N 4.8 mph7.7 kmh 29.10 in985.4 mb 0.00 in0.0 mm 0.00 in0.0 mm 0.00 in0.0 mm
03:35 AM 23.0°F-5.0°C -19.2°F-28.4°C 14% 1.4 mph N2.3 kmh N 2.8 mph4.5 kmh 29.09 in985.1 mb 0.00 in0.0 mm 0.00 in0.0 mm 0.00 in0.0 mm
03:50 AM 23.4°F-4.8°C -17.6°F-27.6°C 15% 0.6 mph N1.0 kmh N 2.8 mph4.5 kmh 29.09 in985.1 mb 0.00 in0.0 mm 0.00 in0.0 mm 0.00 in0.0 mm
04:05 AM 23.7°F-4.6°C -17.3°F-27.4°C 15% 0.6 mph N1.0 kmh N 3.4 mph5.5 kmh 29.08 in984.8 mb 0.00 in0.0 mm 0.00 in0.0 mm 0.00 in0.0 mm
04:20 AM 23.7°F-4.6°C -17.3°F-27.4°C 15% 0.6 mph N1.0 kmh N 2.0 mph3.2 kmh 29.08 in984.8 mb 0.00 in0.0 mm 0.00 in0.0 mm 0.00 in0.0 mm
04:35 AM 23.9°F-4.5°C -15.9°F-26.6°C 16% 1.4 mph N2.3 kmh N 3.4 mph5.5 kmh 29.08 in984.8 mb 0.00 in0.0 mm 0.00 in0.0 mm 0.00 in0.0 mm
04:50 AM 24.1°F-4.4°C -14.6°F-25.9°C 17% 0.6 mph N1.0 kmh N 2.0 mph3.2 kmh 29.07 in984.4 mb 0.00 in0.0 mm 0.00 in0.0 mm 0.00 in0.0 mm
05:05 AM 24.3°F-4.3°C -14.4°F-25.8°C 17% 1.4 mph N2.3 kmh N 3.4 mph5.5 kmh 29.06 in984.1 mb 0.00 in0.0 mm 0.00 in0.0 mm 0.00 in0.0 mm
05:20 AM 24.8°F-4.0°C -12.8°F-24.9°C 18% 2.0 mph N3.2 kmh N 4.8 mph7.7 kmh 29.06 in984.1 mb 0.00 in0.0 mm 0.00 in0.0 mm 0.00 in0.0 mm
05:35 AM 25.3°F-3.7°C -11.3°F-24.1°C 19% 0.6 mph N1.0 kmh N 2.8 mph4.5 kmh 29.06 in984.1 mb 0.00 in0.0 mm 0.00 in0.0 mm 0.00 in0.0 mm
05:50 AM 25.9°F-3.4°C -9.9°F-23.3°C 20% 0.6 mph N1.0 kmh N 2.0 mph3.2 kmh 29.06 in984.1 mb 0.00 in0.0 mm 0.00 in0.0 mm 0.00 in0.0 mm
06:05 AM 26.2°F-3.2°C -9.6°F-23.1°C 20% 0.6 mph N1.0 kmh N 2.8 mph4.5 kmh 29.05 in983.7 mb 0.00 in0.0 mm 0.00 in0.0 mm 0.00 in0.0 mm
06:20 AM 27.0°F-2.8°C -8.0°F-22.2°C 21% Calm Calm 2.8 mph4.5 kmh 29.05 in983.7 mb 0.00 in0.0 mm 0.00 in0.0 mm 0.00 in0.0 mm
06:35 AM 28.0°F-2.2°C -6.1°F-21.2°C 22% Calm Calm 2.0 mph3.2 kmh 29.05 in983.7 mb 0.00 in0.0 mm 0.00 in0.0 mm 0.00 in0.0 mm
06:50 AM 28.4°F-2.0°C -5.8°F-21.0°C 22% 2.0 mph N3.2 kmh N 3.4 mph5.5 kmh 29.05 in983.7 mb 0.00 in0.0 mm 0.00 in0.0 mm 0.00 in0.0 mm
07:05 AM 28.9°F-1.7°C -4.4°F-20.2°C 23% 1.4 mph N2.3 kmh N 2.8 mph4.5 kmh 29.05 in983.7 mb 0.00 in0.0 mm 0.00 in0.0 mm 0.00 in0.0 mm
07:20 AM 29.8°F-1.2°C -2.8°F-19.3°C 24% 1.4 mph N2.3 kmh N 3.4 mph5.5 kmh 29.05 in983.7 mb 0.00 in0.0 mm 0.00 in0.0 mm 0.00 in0.0 mm
07:35 AM 30.7°F-0.7°C -2.0°F-18.9°C 24% 1.4 mph N2.3 kmh N 2.8 mph4.5 kmh 29.06 in984.1 mb 0.00 in0.0 mm 0.00 in0.0 mm 0.00 in0.0 mm
07:50 AM 31.8°F-0.1°C -0.2°F-17.9°C 25% 1.4 mph N2.3 kmh N 4.0 mph6.4 kmh 29.06 in984.1 mb 0.00 in0.0 mm 0.00 in0.0 mm 0.00 in0.0 mm
08:05 AM 32.5°F0.3°C 1.2°F-17.1°C 26% 2.0 mph N3.2 kmh N 3.4 mph5.5 kmh 29.06 in984.1 mb 0.00 in0.0 mm 0.00 in0.0 mm 0.00 in0.0 mm
08:20 AM 33.1°F0.6°C 2.5°F-16.4°C 27% 2.8 mph N4.5 kmh N 4.8 mph7.7 kmh 29.07 in984.4 mb 0.00 in0.0 mm 0.00 in0.0 mm 0.00 in0.0 mm
08:35 AM 33.6°F0.9°C 3.0°F-16.1°C 27% 2.0 mph N3.2 kmh N 4.8 mph7.7 kmh 29.07 in984.4 mb 0.00 in0.0 mm 0.00 in0.0 mm 0.00 in0.0 mm
08:50 AM 34.2°F1.2°C 4.2°F-15.4°C 28% 2.0 mph N3.2 kmh N 4.0 mph6.4 kmh 29.07 in984.4 mb 0.00 in0.0 mm 0.00 in0.0 mm 0.00 in0.0 mm
09:05 AM 34.3°F1.3°C 4.4°F-15.3°C 28% 2.0 mph N3.2 kmh N 5.4 mph8.7 kmh 29.08 in984.8 mb 0.00 in0.0 mm 0.00 in0.0 mm 0.00 in0.0 mm
09:20 AM 35.2°F1.8°C 5.9°F-14.5°C 29% 2.8 mph N4.5 kmh N 4.8 mph7.7 kmh 29.08 in984.8 mb 0.00 in0.0 mm 0.00 in0.0 mm 0.00 in0.0 mm
09:35 AM 35.1°F1.7°C 5.8°F-14.6°C 29% 2.0 mph N3.2 kmh N 4.8 mph7.7 kmh 29.09 in985.1 mb 0.00 in0.0 mm 0.00 in0.0 mm 0.00 in0.0 mm
09:50 AM 35.8°F2.1°C 7.1°F-13.8°C 30% 2.0 mph N3.2 kmh N 4.0 mph6.4 kmh 29.09 in985.1 mb 0.00 in0.0 mm 0.00 in0.0 mm 0.00 in0.0 mm
10:05 AM 36.1°F2.3°C 7.5°F-13.6°C 30% 1.4 mph N2.3 kmh N 3.4 mph5.5 kmh 29.10 in985.4 mb 0.00 in0.0 mm 0.00 in0.0 mm 0.00 in0.0 mm
10:20 AM 36.5°F2.5°C 8.5°F-13.1°C 31% 2.0 mph N3.2 kmh N 6.2 mph10.0 kmh 29.10 in985.4 mb 0.00 in0.0 mm 0.00 in0.0 mm 0.00 in0.0 mm
10:35 AM 37.0°F2.8°C 9.0°F-12.8°C 31% 2.8 mph N4.5 kmh N 4.8 mph7.7 kmh 29.10 in985.4 mb 0.00 in0.0 mm 0.00 in0.0 mm 0.00 in0.0 mm
10:50 AM 37.2°F2.9°C 9.1°F-12.7°C 31% 2.8 mph N4.5 kmh N 4.0 mph6.4 kmh 29.11 in985.8 mb 0.01 in0.3 mm 0.05 in1.3 mm 0.01 in0.3 mm
11:05 AM 37.2°F2.9°C 9.1°F-12.7°C 31% 2.8 mph N4.5 kmh N 5.4 mph8.7 kmh 29.11 in985.8 mb 0.02 in0.5 mm 0.02 in0.5 mm 0.02 in0.5 mm
11:20 AM 37.2°F2.9°C 9.1°F-12.7°C 31% 2.8 mph N4.5 kmh N 5.4 mph8.7 kmh 29.11 in985.8 mb 0.01 in0.3 mm 0.00 in0.0 mm 0.02 in0.5 mm
11:35 AM 37.4°F3.0°C 9.3°F-12.6°C 31% 2.8 mph N4.5 kmh N 5.4 mph8.7 kmh 29.11 in985.8 mb 0.01 in0.3 mm 0.00 in0.0 mm 0.02 in0.5 mm
11:50 AM 38.1°F3.4°C 9.9°F-12.3°C 31% 2.0 mph N3.2 kmh N 4.8 mph7.7 kmh 29.11 in985.8 mb 0.02 in0.5 mm 0.05 in1.3 mm 0.04 in1.0 mm
12:05 PM 37.9°F3.3°C 9.8°F-12.3°C 31% 4.0 mph N6.4 kmh N 6.2 mph10.0 kmh 29.12 in986.1 mb 0.02 in0.5 mm 0.00 in0.0 mm 0.04 in1.0 mm
12:20 PM 37.0°F2.8°C 8.2°F-13.2°C 30% 3.4 mph N5.5 kmh N 5.4 mph8.7 kmh 29.12 in986.1 mb 0.00 in0.0 mm 0.00 in0.0 mm 0.04 in1.0 mm
12:35 PM 36.9°F2.7°C 8.1°F-13.3°C 30% 2.8 mph N4.5 kmh N 5.4 mph8.7 kmh 29.13 in986.5 mb 0.00 in0.0 mm 0.00 in0.0 mm 0.04 in1.0 mm
12:50 PM 37.2°F2.9°C 8.4°F-13.1°C 30% 3.4 mph N5.5 kmh N 6.8 mph10.9 kmh 29.13 in986.5 mb 0.00 in0.0 mm 0.00 in0.0 mm 0.04 in1.0 mm
01:05 PM 37.6°F3.1°C 8.7°F-12.9°C 30% 2.8 mph N4.5 kmh N 4.0 mph6.4 kmh 29.13 in986.5 mb 0.00 in0.0 mm 0.00 in0.0 mm 0.04 in1.0 mm
01:20 PM 37.9°F3.3°C 9.0°F-12.8°C 30% 3.4 mph N5.5 kmh N 6.8 mph10.9 kmh 29.13 in986.5 mb 0.00 in0.0 mm 0.00 in0.0 mm 0.04 in1.0 mm
01:35 PM 37.8°F3.2°C 8.1°F-13.3°C 29% 2.0 mph N3.2 kmh N 4.0 mph6.4 kmh 29.14 in986.8 mb 0.00 in0.0 mm 0.00 in0.0 mm 0.04 in1.0 mm
01:50 PM 37.4°F3.0°C 7.8°F-13.4°C 29% 2.0 mph N3.2 kmh N 4.0 mph6.4 kmh 29.14 in986.8 mb 0.00 in0.0 mm 0.00 in0.0 mm 0.04 in1.0 mm
02:05 PM 37.2°F2.9°C 6.9°F-13.9°C 28% 2.0 mph N3.2 kmh N 4.8 mph7.7 kmh 29.15 in987.1 mb 0.00 in0.0 mm 0.00 in0.0 mm 0.04 in1.0 mm
02:20 PM 37.4°F3.0°C 7.0°F-13.9°C 28% 2.8 mph N4.5 kmh N 5.4 mph8.7 kmh 29.16 in987.5 mb 0.00 in0.0 mm 0.00 in0.0 mm 0.04 in1.0 mm
02:35 PM 37.2°F2.9°C 6.1°F-14.4°C 27% 2.8 mph N4.5 kmh N 5.4 mph8.7 kmh 29.16 in987.5 mb 0.00 in0.0 mm 0.00 in0.0 mm 0.04 in1.0 mm
02:50 PM 37.4°F3.0°C 6.2°F-14.3°C 27% 2.0 mph N3.2 kmh N 5.4 mph8.7 kmh 29.16 in987.5 mb 0.00 in0.0 mm 0.00 in0.0 mm 0.04 in1.0 mm
03:05 PM 37.2°F2.9°C 5.2°F-14.9°C 26% 3.4 mph N5.5 kmh N 6.2 mph10.0 kmh 29.16 in987.5 mb 0.00 in0.0 mm 0.00 in0.0 mm 0.04 in1.0 mm
03:20 PM 36.9°F2.7°C 4.9°F-15.1°C 26% 2.0 mph N3.2 kmh N 4.0 mph6.4 kmh 29.16 in987.5 mb 0.00 in0.0 mm 0.00 in0.0 mm 0.04 in1.0 mm
03:35 PM 36.7°F2.6°C 4.8°F-15.1°C 26% 2.0 mph N3.2 kmh N 4.0 mph6.4 kmh 29.16 in987.5 mb 0.00 in0.0 mm 0.00 in0.0 mm 0.04 in1.0 mm
03:50 PM 36.5°F2.5°C 4.6°F-15.2°C 26% 2.0 mph N3.2 kmh N 3.4 mph5.5 kmh 29.16 in987.5 mb 0.00 in0.0 mm 0.00 in0.0 mm 0.04 in1.0 mm
04:05 PM 36.5°F2.5°C 4.6°F-15.2°C 26% 2.0 mph N3.2 kmh N 5.4 mph8.7 kmh 29.16 in987.5 mb 0.00 in0.0 mm 0.00 in0.0 mm 0.04 in1.0 mm
04:20 PM 36.3°F2.4°C 4.5°F-15.3°C 26% 3.4 mph N5.5 kmh N 5.4 mph8.7 kmh 29.17 in987.8 mb 0.00 in0.0 mm 0.00 in0.0 mm 0.04 in1.0 mm
04:35 PM 36.3°F2.4°C 4.5°F-15.3°C 26% 3.4 mph N5.5 kmh N 6.2 mph10.0 kmh 29.18 in988.1 mb 0.00 in0.0 mm 0.00 in0.0 mm 0.04 in1.0 mm
04:50 PM 36.1°F2.3°C 4.3°F-15.4°C 26% 2.8 mph N4.5 kmh N 5.4 mph8.7 kmh 29.18 in988.1 mb 0.00 in0.0 mm 0.00 in0.0 mm 0.04 in1.0 mm
05:05 PM 36.0°F2.2°C 4.2°F-15.4°C 26% 2.0 mph N3.2 kmh N 4.0 mph6.4 kmh 29.18 in988.1 mb 0.00 in0.0 mm 0.00 in0.0 mm 0.04 in1.0 mm
05:20 PM 35.8°F2.1°C 4.8°F-15.1°C 27% 2.0 mph N3.2 kmh N 4.0 mph6.4 kmh 29.19 in988.5 mb 0.00 in0.0 mm 0.00 in0.0 mm 0.04 in1.0 mm
05:35 PM 35.8°F2.1°C 4.8°F-15.1°C 27% 2.8 mph N4.5 kmh N 4.0 mph6.4 kmh 29.19 in988.5 mb 0.00 in0.0 mm 0.00 in0.0 mm 0.04 in1.0 mm
05:50 PM 35.8°F2.1°C 4.8°F-15.1°C 27% 2.8 mph N4.5 kmh N 6.2 mph10.0 kmh 29.19 in988.5 mb 0.00 in0.0 mm 0.00 in0.0 mm 0.04 in1.0 mm
06:05 PM 35.8°F2.1°C 4.8°F-15.1°C 27% 2.0 mph N3.2 kmh N 6.2 mph10.0 kmh 29.18 in988.1 mb 0.00 in0.0 mm 0.00 in0.0 mm 0.04 in1.0 mm
06:20 PM 36.1°F2.3°C 5.1°F-14.9°C 27% 3.4 mph N5.5 kmh N 6.2 mph10.0 kmh 29.18 in988.1 mb 0.00 in0.0 mm 0.00 in0.0 mm 0.04 in1.0 mm
06:35 PM 36.3°F2.4°C 5.3°F-14.8°C 27% 2.8 mph N4.5 kmh N 6.2 mph10.0 kmh 29.18 in988.1 mb 0.00 in0.0 mm 0.00 in0.0 mm 0.04 in1.0 mm
06:50 PM 36.3°F2.4°C 5.3°F-14.8°C 27% 2.8 mph N4.5 kmh N 5.4 mph8.7 kmh 29.18 in988.1 mb 0.00 in0.0 mm 0.00 in0.0 mm 0.04 in1.0 mm
07:05 PM 36.0°F2.2°C 4.2°F-15.4°C 26% 3.4 mph N5.5 kmh N 7.4 mph11.9 kmh 29.19 in988.5 mb 0.00 in0.0 mm 0.00 in0.0 mm 0.04 in1.0 mm
07:20 PM 36.3°F2.4°C 4.5°F-15.3°C 26% 2.8 mph N4.5 kmh N 7.4 mph11.9 kmh 29.19 in988.5 mb 0.00 in0.0 mm 0.00 in0.0 mm 0.04 in1.0 mm
07:35 PM 36.7°F2.6°C 4.8°F-15.1°C 26% 1.4 mph N2.3 kmh N 4.0 mph6.4 kmh 29.20 in988.8 mb 0.00 in0.0 mm 0.00 in0.0 mm 0.04 in1.0 mm
07:50 PM 36.7°F2.6°C 4.8°F-15.1°C 26% 0.6 mph N1.0 kmh N 2.8 mph4.5 kmh 29.19 in988.5 mb 0.00 in0.0 mm 0.00 in0.0 mm 0.04 in1.0 mm
08:05 PM 36.9°F2.7°C 4.9°F-15.1°C 26% 1.4 mph N2.3 kmh N 2.8 mph4.5 kmh 29.19 in988.5 mb 0.00 in0.0 mm 0.00 in0.0 mm 0.04 in1.0 mm
08:20 PM 36.7°F2.6°C 4.8°F-15.1°C 26% 1.4 mph N2.3 kmh N 2.8 mph4.5 kmh 29.20 in988.8 mb 0.00 in0.0 mm 0.00 in0.0 mm 0.04 in1.0 mm
08:35 PM 36.9°F2.7°C 4.9°F-15.1°C 26% 1.4 mph N2.3 kmh N 2.8 mph4.5 kmh 29.21 in989.2 mb 0.00 in0.0 mm 0.00 in0.0 mm 0.04 in1.0 mm
08:50 PM 36.7°F2.6°C 4.8°F-15.1°C 26% 2.0 mph N3.2 kmh N 4.0 mph6.4 kmh 29.21 in989.2 mb 0.00 in0.0 mm 0.00 in0.0 mm 0.04 in1.0 mm
09:05 PM 36.7°F2.6°C 3.9°F-15.6°C 25% 1.4 mph N2.3 kmh N 3.4 mph5.5 kmh 29.21 in989.2 mb 0.00 in0.0 mm 0.00 in0.0 mm 0.04 in1.0 mm
09:20 PM 36.7°F2.6°C 3.9°F-15.6°C 25% 2.8 mph N4.5 kmh N 4.0 mph6.4 kmh 29.21 in989.2 mb 0.00 in0.0 mm 0.00 in0.0 mm 0.04 in1.0 mm
09:35 PM 36.7°F2.6°C 3.9°F-15.6°C 25% 1.4 mph N2.3 kmh N 3.4 mph5.5 kmh 29.21 in989.2 mb 0.00 in0.0 mm 0.00 in0.0 mm 0.04 in1.0 mm
09:50 PM 36.7°F2.6°C 3.9°F-15.6°C 25% 1.4 mph N2.3 kmh N 2.8 mph4.5 kmh 29.21 in989.2 mb 0.00 in0.0 mm 0.00 in0.0 mm 0.04 in1.0 mm
10:05 PM 36.7°F2.6°C 3.9°F-15.6°C 25% 1.4 mph N2.3 kmh N 4.0 mph6.4 kmh 29.21 in989.2 mb 0.00 in0.0 mm 0.00 in0.0 mm 0.04 in1.0 mm
10:20 PM 37.0°F2.8°C 4.2°F-15.4°C 25% 2.8 mph N4.5 kmh N 4.8 mph7.7 kmh 29.20 in988.8 mb 0.00 in0.0 mm 0.00 in0.0 mm 0.04 in1.0 mm
10:35 PM 37.0°F2.8°C 3.4°F-15.9°C 24% 3.4 mph N5.5 kmh N 5.4 mph8.7 kmh 29.20 in988.8 mb 0.00 in0.0 mm 0.00 in0.0 mm 0.04 in1.0 mm
10:50 PM 36.7°F2.6°C 3.1°F-16.1°C 24% 2.0 mph N3.2 kmh N 3.4 mph5.5 kmh 29.19 in988.5 mb 0.00 in0.0 mm 0.00 in0.0 mm 0.04 in1.0 mm
11:05 PM 36.5°F2.5°C 2.9°F-16.2°C 24% 1.4 mph N2.3 kmh N 3.4 mph5.5 kmh 29.20 in988.8 mb 0.00 in0.0 mm 0.00 in0.0 mm 0.04 in1.0 mm
11:20 PM 36.3°F2.4°C 2.7°F-16.3°C 24% 1.4 mph N2.3 kmh N 3.4 mph5.5 kmh 29.19 in988.5 mb 0.00 in0.0 mm 0.00 in0.0 mm 0.04 in1.0 mm
11:35 PM 36.5°F2.5°C 2.0°F-16.7°C 23% 2.8 mph N4.5 kmh N 6.2 mph10.0 kmh 29.19 in988.5 mb 0.00 in0.0 mm 0.00 in0.0 mm 0.04 in1.0 mm
11:50 PM 36.3°F2.4°C 1.8°F-16.8°C 23% 2.0 mph N3.2 kmh N 3.4 mph5.5 kmh 29.18 in988.1 mb 0.00 in0.0 mm 0.00 in0.0 mm 0.04 in1.0 mm